Архив погоды в Казым Реке

Метеограмма Казым Река
Среда, 26 Июня
Время местн. Темп Ветер Видим Явления Облачность нижн/средн/верх Атм. давл. Влжн Точка росы ВНГО R Сост. почвы Tg s
Напр Скр Прв ур.ст ур.м изм
17:00 +15.2° С 2 - 10 км - облачно 753 761 -0.7 37% +0.6° 1 км - - - -
14:00 - - - - 3.5 км - переменная облачность 1013 - - - - 1.5 км - - - -
11:00 +13.6° С 2 - 10 км - переменная облачность 755 762 -1.1 44% +1.6° 1 км - - - -
08:00 +11.4° С-З 2 - 10 км - переменная облачность 756 764 -0.4 49% +1.1° 1 км 0 Влажная (без луж) +4° -
05:00 +7.4° С-З 1 - 10 км - ясно 756 764 0 75% +3.3° более 2.5 км - - - -
02:00 +3.6° С-З 1 - 10 км - переменная облачность 756 764 +0.2 85% +1.3° 1 км - - - -
Вторник, 25 Июня
Время местн. Темп Ветер Видим Явления Облачность нижн/средн/верх Атм. давл. Влжн Точка росы ВНГО R Сост. почвы Tg s
Напр Скр Прв ур.ст ур.м изм
23:00 +8.2° штиль 0 - 10 км небо без изменений {ливневые осадки} облачно 756 764 +0.3 76% +4.2° 1 км - - - -
20:00 +12.1° С 1 - 10 км небо без изменений {ливневые осадки} переменная облачность 756 763 +0.5 44% +0.2° 1 км 0 - - -
17:00 +12.1° С-З 2 - 10 км небо без изменений {ливневые осадки} преимущественно облачно 755 763 +0.5 50% +1.9° 600 м - - - -
14:00 +11.6° С-З 2 - 10 км - преимущественно облачно 755 762 +0.6 45% +0.1° 600 м - - - -
11:00 +10.4° С-З 4 - 10 км - преимущественно облачно 754 762 +0.8 45% -1° 1 км - - - -
08:00 +8.9° С-З 3 - 10 км - переменная облачность 753 761 +0.8 57% +0.8° 600 м 0 - - -
05:00 +8° С-З 3 - 10 км - переменная облачность 752 760 +1.1 67% +2.2° 1 км - - - -
02:00 +7.6° С-З 2 - 10 км - переменная облачность 751 759 +1.1 68% +2.1° 1 км - - - -
Понедельник, 24 Июня
Время местн. Темп Ветер Видим Явления Облачность нижн/средн/верх Атм. давл. Влжн Точка росы ВНГО R Сост. почвы Tg s
Напр Скр Прв ур.ст ур.м изм
23:00 +11.3° С,С-З 2 - 10 км - облачно с прояснениями 750 758 +1.4 56% +2.8° 1 км - - - -
20:00 +13.9° С-З 3 - 10 км - переменная облачность 749 757 +2 53% +4.6° 600 м 0 - - -
17:00 +17.7° С-З 5 14 10 км - преимущественно облачно 747 754 +2 46% +6° 600 м - - - -
14:00 +20.3° З 8 13 10 км - переменная облачность 745 752 +1.1 39% +5.9° 1 км - - - -
11:00 +19.9° З 5 10 10 км небо без изменений {ливневые осадки} переменная облачность 744 751 +0.1 47% +8.2° 1 км - - - -
08:00 +14.4° Ю-З 3 - 10 км ливневый дождь облачно 744 751 -0.5 92% +13.1° 600 м 2 - - -
05:00 - +14° Ю 2 - - - - 744 752 -1.7 84% +11.4° - - - - -
02:00 +13.5° Ю 2 - 10 км - облачно 746 753 -1.1 78% +9.7° 1 км - - - -
Воскресенье, 23 Июня
Время местн. Темп Ветер Видим Явления Облачность нижн/средн/верх Атм. давл. Влжн Точка росы ВНГО R Сост. почвы Tg s
Напр Скр Прв ур.ст ур.м изм
23:00 +13.9° Ю 2 - 10 км - облачно 747 754 -0.4 71% +8.8° 1 км - - - -
20:00 +16.9° Ю,Ю-З 3 - 10 км - облачно 747 755 -0.5 47% +5.6° 1 км 0 - - -
17:00 +18.7° Ю 3 - 10 км - облачно 748 755 -0.5 37% +3.7° 1 км - - - -
14:00 +20.1° Ю 3 10 10 км - облачно 748 756 -0.9 31% +2.3° 1 км - - - -